Strona główna
METAR-TAF:

METAR-TAF

Lotnisko :

Port lotniczy Leeuwarden

Leeuwarden, Holandia

Szerokość geograficzna: 53-13N, Długość geograficzna: 005-46E, wysokość: 1 m

Aktualna obserwacja pogody

Raport powstał 24 minut temu, godzina 10:25 UTC
Wiatr 15 kt od zachód, zmienny między południowy zachód i zachód
Temperatura 19°C
Wilgotność 64%
Ciśnienie 1019 hPa
Widzialność 10 km lub więcej
Mało chmury na wysokości 2800 ft

METAR: EHLW 211025Z AUTO 27015KT 220V280 9999 FEW028 19/12 Q1019 BLU

czas: 12:49 (10:49 UTC)

Prognoza

Raport powstał 2 godziny i 37 minut temu, godzina 08:12 UTC
Prognoza ważna od 21 godzina 09 UTC do 21 godzina 21 UTC
Wiatr 12 kt od zachód
Widzialność 10 km lub więcej
Rozproszone chmury na wysokości 2500 ft
Stopniowe zmiany
od 21 godzina 15 UTC do 21 godzina 17 UTC
Wiatr 8 kt od zachód

TAF: EHLW 210812Z 2109/2121 27012KT 9999 SCT025 BECMG 2115/2117 26008KT

Obserwacja i prognoza pogody dla ponad 4000 lotnisk (raport METAR i TAF).

Dostępne stacje oznaczono żółtymi i czerwonymi punktami na mapie.

Najedź kursorem aby zobaczyć nazwę stacji.

Kliknij aby zobaczyć obserwacje i prognozy pogody.

Aby zmienić mapę: kliknij na zielony przycisk z czarnym krzyżykiem, aby powiększyć; na zielony przycisk z myślnikiem, aby pomniejszyć; na zielone strzałki, aby przejść do map sąsiednich.


METAR-TAF: